Aeroporto :
LOGIN :

Iscrizione | Disclaimer

   EN    FR    IT 

 










Sommario :    VFR   VFR Marginale   IFR   IFR Intensivo   IFR Molto Intensivo
Visibilità : 
Base nubi : 
>= 8 km
>= 3000ft
5 / 8 km
1000 / 3000 ft
1500m / 5 km
500 / 1000 ft
800 / 1500m
200 / 500 ft
< 800m
< 200 ft
Simboli :   Temporali  Nebbia  Neve Forte  Precipitazioni Forti  Vento > 20 kt
SIGMETs :   Varie  Temporali  Ghiacco  Turbolenza  Onda orograficha  Ceneri Vulcaniche







- Altitudine del aeroporto : 94 ft
- Codice IATA : QLT


LIRL - Latina Casale (military)

ULTIMO METAR :
  • 271155Z 33007KT 9999 FEW025 37/15 Q1016

METARs OBSOLETI :
  • 271055Z 33008KT 9999 FEW025 37/17 Q1017 RMK FEW MON LIB NC VIS MIN 9999 WIND THR12 33008KT WIND THR30 33010KT BLU
  • 270955Z 31005KT 9999 FEW025 36/18 Q1017
  • 270855Z 26004KT CAVOK 33/20 Q1017 RMK SKC MON LIB NC VIS MIN 9999 WIND THR12 27002KT WIND THR30 28004KT BLU

TAF TAF LIRL
Valido dal 27 a 12 ore il 27 a 21 ore UTC


271100Z 2712/2721 29012KT 9999 FEW025
TEMPO 2719/2721 VRB03KT
Nessun NOTAM noto per questo aeroporto.



MetMap, La meteo Aeronautica in un colpo d'occhio ! - Copyright ORBIFLY Dicembre 2007 - Disclaimer

ORBIFLY MET'MAP TEAM :

Programmazione e sviluppo : Alexandra Zaïnal
Concezione e sviluppo : Baudouin d'Aumeries
Co-Programmazione e sviluppo : Marc-Olivier Méhu
Supporto tecnico e logistico : Manuel Goepfert
Aiuto per la traduzione : Arnaldo La Scala

Contatto : metmap@orbifly.com




FONTI E CREDITI :

   NOAA